Zed — V7KU2 — position and weather

sailwx.info

Track history (hours):
 
Tides and Currents Weather Stations Pressure Air Temp Water Temp Dewpoint Dewpoint Depression Visibility Wind Speed Wind Dir Waves Ship Positions

Zed

Last reported at 2017-Nov-16 23:14 UTC. Time now 2017-Nov-20 07:57 UTC.
Position N 29°14' W 122°52'.

Length 225 m; draft 13.4 m.

Type: Cargo ship. MMSI: 538007106.

Date/timePositionNaut miles runAvg speedWind from/ knotsBaromVisibWave heightAir tempDewpointWater temp
2017-Nov-16 23:14N 29°14' W 122°52'510.9
2017-Nov-16 22:46N 29°16' W 122°47'411.0
2017-Nov-16 22:23N 29°18' W 122°42'711.0
2017-Nov-16 21:45N 29°21' W 122°35'310.9
2017-Nov-16 21:30N 29°22' W 122°32'1911.0
2017-Nov-16 19:49N 29°30' W 122°13'12010.9
2017-Nov-16 08:48N 30°22' W 120°08'2210.7
2017-Nov-16 06:44N 30°31' W 119°45'310.6
2017-Nov-16 06:30N 30°32' W 119°42'510.8
2017-Nov-16 06:00N 30°35' W 119°37'510.7
2017-Nov-16 05:30N 30°37' W 119°31'510.6
2017-Nov-16 04:59N 30°39' W 119°25'710.8
2017-Nov-16 04:22N 30°42' W 119°18'410.9
2017-Nov-16 03:57N 30°44' W 119°13'510.8
2017-Nov-16 03:30N 30°46' W 119°09'510.8
2017-Nov-16 03:00N 30°49' W 119°03'1010.6
2017-Nov-16 02:05N 30°53' W 118°53'210.5
2017-Nov-16 01:56N 30°53' W 118°51'510.6
2017-Nov-16 01:30N 30°55' W 118°46'2010.2
2017-Nov-15 23:30N 31°10' W 118°30'610.9
2017-Nov-15 22:58N 31°16' W 118°27'510.9
2017-Nov-15 22:29N 31°21' W 118°25'510.8
2017-Nov-15 22:00N 31°26' W 118°22'610.9
2017-Nov-15 21:27N 31°31' W 118°20'511.1
2017-Nov-15 21:00N 31°36' W 118°18'611.0
2017-Nov-15 20:30N 31°41' W 118°15'510.6
2017-Nov-15 20:00N 31°46' W 118°12'610.8
2017-Nov-15 19:28N 31°51' W 118°10'510.8
2017-Nov-15 19:00N 31°56' W 118°07'510.9
2017-Nov-15 18:30N 32°00' W 118°05'510.7
2017-Nov-15 18:00N 32°05' W 118°03'510.9
2017-Nov-15 17:30N 32°10' W 117°60'1110.7
2017-Nov-15 16:26N 32°21' W 117°55'810.3
2017-Nov-15 15:40N 32°28' W 117°51'210.9
2017-Nov-15 15:31N 32°30' W 117°51'510.7
2017-Nov-15 15:00N 32°35' W 117°48'510.7
2017-Nov-15 14:30N 32°40' W 117°50'510.9
2017-Nov-15 14:00N 32°45' W 117°52'511.0
2017-Nov-15 13:30N 32°50' W 117°54'511.0
2017-Nov-15 13:00N 32°56' W 117°57'511.0
2017-Nov-15 12:30N 33°01' W 117°59'611.2
2017-Nov-15 12:00N 33°06' W 118°01'611.3
2017-Nov-15 11:30N 33°11' W 118°03'611.4
2017-Nov-15 11:00N 33°17' W 118°05'811.4
2017-Nov-15 10:16N 33°25' W 118°08'311.5
2017-Nov-15 10:00N 33°28' W 118°09'611.5
2017-Nov-15 09:30N 33°33' W 118°12'510.8
2017-Nov-15 09:00N 33°38' W 118°12'5 8.6
2017-Nov-15 08:22N 33°44' W 118°12'  
2017-Nov-13 01:47N 33°44' W 118°37'510.7
2017-Nov-13 01:22N 33°46' W 118°42'1011.1
2017-Nov-13 00:27N 33°51' W 118°52'811.2
2017-Nov-12 23:43N 33°55' W 119°01'311.2
2017-Nov-12 23:28N 33°56' W 119°04'611.7
2017-Nov-12 22:59N 33°59' W 119°10'612.1
2017-Nov-12 22:30N 34°02' W 119°16'611.9
2017-Nov-12 22:00N 34°04' W 119°23'611.5
2017-Nov-12 21:30N 34°05' W 119°29'611.7
2017-Nov-12 20:58N 34°07' W 119°36'611.2
2017-Nov-12 20:29N 34°08' W 119°43'611.7
2017-Nov-12 20:00N 34°10' W 119°50'611.9
2017-Nov-12 19:30N 34°12' W 119°56'711.7
2017-Nov-12 18:56N 34°13' W 120°04'811.6
2017-Nov-12 18:16N 34°15' W 120°13'311.6
2017-Nov-12 18:00N 34°16' W 120°17'611.6
2017-Nov-12 17:29N 34°18' W 120°24'611.8
2017-Nov-12 17:00N 34°19' W 120°30'510.8
2017-Nov-12 16:29N 34°21' W 120°37'611.6
2017-Nov-12 16:00N 34°22' W 120°43'611.8
2017-Nov-12 15:30N 34°24' W 120°50'611.9
2017-Nov-12 15:00N 34°25' W 120°57'611.0
2017-Nov-12 14:30N 34°29' W 121°02'611.8
2017-Nov-12 14:00N 34°34' W 121°06'612.1
2017-Nov-12 13:30N 34°39' W 121°10'611.8
2017-Nov-12 13:00N 34°44' W 121°14'611.6
2017-Nov-12 12:30N 34°49' W 121°18'611.8
2017-Nov-12 12:00N 34°54' W 121°21'611.7
2017-Nov-12 11:30N 34°59' W 121°25'611.8
2017-Nov-12 11:00N 35°04' W 121°29'611.9
2017-Nov-12 10:30N 35°09' W 121°33'612.0
2017-Nov-12 10:00N 35°14' W 121°37'612.1
2017-Nov-12 09:30N 35°19' W 121°41'612.2
2017-Nov-12 09:00N 35°24' W 121°44'612.0
2017-Nov-12 08:30N 35°30' W 121°48'2112.2
2017-Nov-12 06:46N 35°48' W 122°01'312.2
2017-Nov-12 06:30N 35°51' W 122°03'612.3
2017-Nov-12 06:00N 35°56' W 122°06'612.1
2017-Nov-12 05:30N 36°02' W 122°09'612.3
2017-Nov-12 05:00N 36°08' W 122°13'612.1
2017-Nov-12 04:30N 36°13' W 122°16'611.9
2017-Nov-12 04:00N 36°18' W 122°19'612.1
2017-Nov-12 03:30N 36°24' W 122°22'612.3
2017-Nov-12 03:00N 36°30' W 122°24'612.6
2017-Nov-12 02:30N 36°36' W 122°27'612.7
2017-Nov-12 02:00N 36°42' W 122°30'612.8
2017-Nov-12 01:30N 36°48' W 122°33'612.4
2017-Nov-12 01:00N 36°53' W 122°36'611.9
2017-Nov-12 00:29N 36°59' W 122°38'611.8
2017-Nov-12 00:00N 37°05' W 122°41'611.8
2017-Nov-11 23:30N 37°10' W 122°43'611.9
2017-Nov-11 23:00N 37°16' W 122°43'611.8
2017-Nov-11 22:30N 37°22' W 122°43'612.3
2017-Nov-11 22:00N 37°28' W 122°43'612.1
2017-Nov-11 21:31N 37°34' W 122°43'612.1
2017-Nov-11 21:00N 37°40' W 122°43'510.9
2017-Nov-11 20:30N 37°45' W 122°42'510.5
2017-Nov-11 20:00N 37°47' W 122°36'714.0
2017-Nov-11 19:30N 37°50' W 122°28'5 9.1
2017-Nov-11 19:00N 37°54' W 122°26'612.7
2017-Nov-11 18:30N 38°00' W 122°25'610.9
2017-Nov-11 18:00N 38°03' W 122°19'510.4
2017-Nov-11 17:29N 38°04' W 122°12'5 7.7
2017-Nov-11 16:51N 38°03' W 122°06'3 7.5
2017-Nov-11 16:24N 38°04' W 122°02'6 7.5
2017-Nov-11 15:40N 38°03' W 121°55'1 5.5
2017-Nov-11 15:30N 38°03' W 121°54'  
2017-Nov-08 23:14N 38°02' W 121°52'1 4.8
2017-Nov-08 23:00N 38°02' W 121°50'2 2.6
2017-Nov-08 22:09N 38°02' W 121°53'810.4
2017-Nov-08 21:23N 38°04' W 122°03'4 8.7
2017-Nov-08 20:57N 38°02' W 122°07'4 9.2
2017-Nov-08 20:28N 38°04' W 122°13'612.3
2017-Nov-08 20:00N 38°03' W 122°20'713.6
2017-Nov-08 19:30N 37°58' W 122°26'612.6
2017-Nov-08 19:01N 37°52' W 122°25'611.7
2017-Nov-08 18:31N 37°47' W 122°21'1 2.3
2017-Nov-08 18:00N 37°46' W 122°21'0 0.2
2017-Nov-08 17:30N 37°46' W 122°21'0 0.2
2017-Nov-08 17:00N 37°46' W 122°21'0 0.0
2017-Nov-08 16:30N 37°46' W 122°21'0 0.0
2017-Nov-08 16:00N 37°46' W 122°21'0 0.0
2017-Nov-08 15:30N 37°46' W 122°21'0 0.0
2017-Nov-08 15:00N 37°46' W 122°21'0 0.0
2017-Nov-08 14:30N 37°46' W 122°21'0 0.0
2017-Nov-08 14:00N 37°46' W 122°21'0 0.0
2017-Nov-08 13:30N 37°46' W 122°21'0 0.0
2017-Nov-08 13:00N 37°46' W 122°21'0 0.1
2017-Nov-08 12:30N 37°46' W 122°21'0 0.3
2017-Nov-08 12:00N 37°46' W 122°21'0 0.2
2017-Nov-08 11:30N 37°46' W 122°20'0 0.0
2017-Nov-08 11:00N 37°46' W 122°20'0 0.1
2017-Nov-08 10:30N 37°46' W 122°20'0 0.1
2017-Nov-08 10:00N 37°46' W 122°20'0 0.1
2017-Nov-08 09:30N 37°46' W 122°20'0 0.0
2017-Nov-08 09:00N 37°46' W 122°20'0 0.0
2017-Nov-08 08:30N 37°46' W 122°20'0 0.0
2017-Nov-08 08:00N 37°46' W 122°20'0 0.0
2017-Nov-08 07:30N 37°46' W 122°20'0 0.0
2017-Nov-08 07:00N 37°46' W 122°20'0 0.1
2017-Nov-08 06:30N 37°46' W 122°20'0 0.1
2017-Nov-08 06:00N 37°46' W 122°20'0 0.4
2017-Nov-08 05:30N 37°46' W 122°20'0 0.0
2017-Nov-08 05:00N 37°46' W 122°20'0 0.0
2017-Nov-08 04:31N 37°46' W 122°20'3 6.5
2017-Nov-08 04:01N 37°49' W 122°23'510.3
2017-Nov-08 03:30N 37°48' W 122°30'611.4
2017-Nov-08 03:00N 37°46' W 122°37'510.5
2017-Nov-08 02:31N 37°46' W 122°43'4 8.1
2017-Nov-08 02:00N 37°47' W 122°48'4 8.7
2017-Nov-08 01:30N 37°49' W 122°53'4 8.6
2017-Nov-08 01:00N 37°51' W 122°58'4 8.9
2017-Nov-08 00:30N 37°53' W 123°03'4 8.9
2017-Nov-08 00:00N 37°56' W 123°08'5 9.4
2017-Nov-07 23:30N 37°58' W 123°12'4 8.9
2017-Nov-07 23:00N 38°02' W 123°16'5 9.9
2017-Nov-07 22:30N 38°06' W 123°20'4 8.7
2017-Nov-07 22:00N 38°07' W 123°25'4 9.0
2017-Nov-07 21:30N 38°07' W 123°31'4 9.0
2017-Nov-07 21:00N 38°08' W 123°36'5 9.1
2017-Nov-07 20:30N 38°08' W 123°42'5 9.8
2017-Nov-07 20:00N 38°08' W 123°48'5 9.9
2017-Nov-07 19:30N 38°08' W 123°55'510.1
2017-Nov-07 19:00N 38°07' W 124°01'510.6
2017-Nov-07 18:30N 38°07' W 124°08'710.4
2017-Nov-07 17:52N 38°07' W 124°16'410.2
2017-Nov-07 17:30N 38°07' W 124°21'510.5
2017-Nov-07 17:00N 38°07' W 124°28'510.7
2017-Nov-07 16:30N 38°08' W 124°35'812.7
2017-Nov-07 15:53N 38°07' W 124°45'512.8
2017-Nov-07 15:29N 38°07' W 124°51'612.2
2017-Nov-07 15:00N 38°07' W 124°58'  
Track history (hours):
 
Tides and Currents Weather Stations Pressure Air Temp Water Temp Dewpoint Dewpoint Depression Visibility Wind Speed Wind Dir Waves Ship Positions

Zed

Last reported at 2017-Nov-16 23:14 UTC. Time now 2017-Nov-20 07:57 UTC.
Position N 29°14' W 122°52'.

Length 225 m; draft 13.4 m.

Type: Cargo ship. MMSI: 538007106.

Date/timePositionNaut miles runAvg speedWind from/ knotsBaromVisibWave heightAir tempDewpointWater temp
2017-Nov-16 23:14N 29°14' W 122°52'510.9
2017-Nov-16 22:46N 29°16' W 122°47'411.0
2017-Nov-16 22:23N 29°18' W 122°42'711.0
2017-Nov-16 21:45N 29°21' W 122°35'310.9
2017-Nov-16 21:30N 29°22' W 122°32'1911.0
2017-Nov-16 19:49N 29°30' W 122°13'12010.9
2017-Nov-16 08:48N 30°22' W 120°08'2210.7
2017-Nov-16 06:44N 30°31' W 119°45'310.6
2017-Nov-16 06:30N 30°32' W 119°42'510.8
2017-Nov-16 06:00N 30°35' W 119°37'510.7
2017-Nov-16 05:30N 30°37' W 119°31'510.6
2017-Nov-16 04:59N 30°39' W 119°25'710.8
2017-Nov-16 04:22N 30°42' W 119°18'410.9
2017-Nov-16 03:57N 30°44' W 119°13'510.8
2017-Nov-16 03:30N 30°46' W 119°09'510.8
2017-Nov-16 03:00N 30°49' W 119°03'1010.6
2017-Nov-16 02:05N 30°53' W 118°53'210.5
2017-Nov-16 01:56N 30°53' W 118°51'510.6
2017-Nov-16 01:30N 30°55' W 118°46'2010.2
2017-Nov-15 23:30N 31°10' W 118°30'610.9
2017-Nov-15 22:58N 31°16' W 118°27'510.9
2017-Nov-15 22:29N 31°21' W 118°25'510.8
2017-Nov-15 22:00N 31°26' W 118°22'610.9
2017-Nov-15 21:27N 31°31' W 118°20'511.1
2017-Nov-15 21:00N 31°36' W 118°18'611.0
2017-Nov-15 20:30N 31°41' W 118°15'510.6
2017-Nov-15 20:00N 31°46' W 118°12'610.8
2017-Nov-15 19:28N 31°51' W 118°10'510.8
2017-Nov-15 19:00N 31°56' W 118°07'510.9
2017-Nov-15 18:30N 32°00' W 118°05'510.7
2017-Nov-15 18:00N 32°05' W 118°03'510.9
2017-Nov-15 17:30N 32°10' W 117°60'1110.7
2017-Nov-15 16:26N 32°21' W 117°55'810.3
2017-Nov-15 15:40N 32°28' W 117°51'210.9
2017-Nov-15 15:31N 32°30' W 117°51'510.7
2017-Nov-15 15:00N 32°35' W 117°48'510.7
2017-Nov-15 14:30N 32°40' W 117°50'510.9
2017-Nov-15 14:00N 32°45' W 117°52'511.0
2017-Nov-15 13:30N 32°50' W 117°54'511.0
2017-Nov-15 13:00N 32°56' W 117°57'511.0
2017-Nov-15 12:30N 33°01' W 117°59'611.2
2017-Nov-15 12:00N 33°06' W 118°01'611.3
2017-Nov-15 11:30N 33°11' W 118°03'611.4
2017-Nov-15 11:00N 33°17' W 118°05'811.4
2017-Nov-15 10:16N 33°25' W 118°08'311.5
2017-Nov-15 10:00N 33°28' W 118°09'611.5
2017-Nov-15 09:30N 33°33' W 118°12'510.8
2017-Nov-15 09:00N 33°38' W 118°12'5 8.6
2017-Nov-15 08:22N 33°44' W 118°12'  
2017-Nov-13 01:47N 33°44' W 118°37'510.7
2017-Nov-13 01:22N 33°46' W 118°42'1011.1
2017-Nov-13 00:27N 33°51' W 118°52'811.2
2017-Nov-12 23:43N 33°55' W 119°01'311.2
2017-Nov-12 23:28N 33°56' W 119°04'611.7
2017-Nov-12 22:59N 33°59' W 119°10'612.1
2017-Nov-12 22:30N 34°02' W 119°16'611.9
2017-Nov-12 22:00N 34°04' W 119°23'611.5
2017-Nov-12 21:30N 34°05' W 119°29'611.7
2017-Nov-12 20:58N 34°07' W 119°36'611.2
2017-Nov-12 20:29N 34°08' W 119°43'611.7
2017-Nov-12 20:00N 34°10' W 119°50'611.9
2017-Nov-12 19:30N 34°12' W 119°56'711.7
2017-Nov-12 18:56N 34°13' W 120°04'811.6
2017-Nov-12 18:16N 34°15' W 120°13'311.6
2017-Nov-12 18:00N 34°16' W 120°17'611.6
2017-Nov-12 17:29N 34°18' W 120°24'611.8
2017-Nov-12 17:00N 34°19' W 120°30'510.8
2017-Nov-12 16:29N 34°21' W 120°37'611.6
2017-Nov-12 16:00N 34°22' W 120°43'611.8
2017-Nov-12 15:30N 34°24' W 120°50'611.9
2017-Nov-12 15:00N 34°25' W 120°57'611.0
2017-Nov-12 14:30N 34°29' W 121°02'611.8
2017-Nov-12 14:00N 34°34' W 121°06'612.1
2017-Nov-12 13:30N 34°39' W 121°10'611.8
2017-Nov-12 13:00N 34°44' W 121°14'611.6
2017-Nov-12 12:30N 34°49' W 121°18'611.8
2017-Nov-12 12:00N 34°54' W 121°21'611.7
2017-Nov-12 11:30N 34°59' W 121°25'611.8
2017-Nov-12 11:00N 35°04' W 121°29'611.9
2017-Nov-12 10:30N 35°09' W 121°33'612.0
2017-Nov-12 10:00N 35°14' W 121°37'612.1
2017-Nov-12 09:30N 35°19' W 121°41'612.2
2017-Nov-12 09:00N 35°24' W 121°44'612.0
2017-Nov-12 08:30N 35°30' W 121°48'2112.2
2017-Nov-12 06:46N 35°48' W 122°01'312.2
2017-Nov-12 06:30N 35°51' W 122°03'612.3
2017-Nov-12 06:00N 35°56' W 122°06'612.1
2017-Nov-12 05:30N 36°02' W 122°09'612.3
2017-Nov-12 05:00N 36°08' W 122°13'612.1
2017-Nov-12 04:30N 36°13' W 122°16'611.9
2017-Nov-12 04:00N 36°18' W 122°19'612.1
2017-Nov-12 03:30N 36°24' W 122°22'612.3
2017-Nov-12 03:00N 36°30' W 122°24'612.6
2017-Nov-12 02:30N 36°36' W 122°27'612.7
2017-Nov-12 02:00N 36°42' W 122°30'612.8
2017-Nov-12 01:30N 36°48' W 122°33'612.4
2017-Nov-12 01:00N 36°53' W 122°36'611.9
2017-Nov-12 00:29N 36°59' W 122°38'611.8
2017-Nov-12 00:00N 37°05' W 122°41'611.8
2017-Nov-11 23:30N 37°10' W 122°43'611.9
2017-Nov-11 23:00N 37°16' W 122°43'611.8
2017-Nov-11 22:30N 37°22' W 122°43'612.3
2017-Nov-11 22:00N 37°28' W 122°43'612.1
2017-Nov-11 21:31N 37°34' W 122°43'612.1
2017-Nov-11 21:00N 37°40' W 122°43'510.9
2017-Nov-11 20:30N 37°45' W 122°42'510.5
2017-Nov-11 20:00N 37°47' W 122°36'714.0
2017-Nov-11 19:30N 37°50' W 122°28'5 9.1
2017-Nov-11 19:00N 37°54' W 122°26'612.7
2017-Nov-11 18:30N 38°00' W 122°25'610.9
2017-Nov-11 18:00N 38°03' W 122°19'510.4
2017-Nov-11 17:29N 38°04' W 122°12'5 7.7
2017-Nov-11 16:51N 38°03' W 122°06'3 7.5
2017-Nov-11 16:24N 38°04' W 122°02'6 7.5
2017-Nov-11 15:40N 38°03' W 121°55'1 5.5
2017-Nov-11 15:30N 38°03' W 121°54'  
2017-Nov-08 23:14N 38°02' W 121°52'1 4.8
2017-Nov-08 23:00N 38°02' W 121°50'2 2.6
2017-Nov-08 22:09N 38°02' W 121°53'810.4
2017-Nov-08 21:23N 38°04' W 122°03'4 8.7
2017-Nov-08 20:57N 38°02' W 122°07'4 9.2
2017-Nov-08 20:28N 38°04' W 122°13'612.3
2017-Nov-08 20:00N 38°03' W 122°20'713.6
2017-Nov-08 19:30N 37°58' W 122°26'612.6
2017-Nov-08 19:01N 37°52' W 122°25'611.7
2017-Nov-08 18:31N 37°47' W 122°21'1 2.3
2017-Nov-08 18:00N 37°46' W 122°21'0 0.2
2017-Nov-08 17:30N 37°46' W 122°21'0 0.2
2017-Nov-08 17:00N 37°46' W 122°21'0 0.0
2017-Nov-08 16:30N 37°46' W 122°21'0 0.0
2017-Nov-08 16:00N 37°46' W 122°21'0 0.0
2017-Nov-08 15:30N 37°46' W 122°21'0 0.0
2017-Nov-08 15:00N 37°46' W 122°21'0 0.0
2017-Nov-08 14:30N 37°46' W 122°21'0 0.0
2017-Nov-08 14:00N 37°46' W 122°21'0 0.0
2017-Nov-08 13:30N 37°46' W 122°21'0 0.0
2017-Nov-08 13:00N 37°46' W 122°21'0 0.1
2017-Nov-08 12:30N 37°46' W 122°21'0 0.3
2017-Nov-08 12:00N 37°46' W 122°21'0 0.2
2017-Nov-08 11:30N 37°46' W 122°20'0 0.0
2017-Nov-08 11:00N 37°46' W 122°20'0 0.1
2017-Nov-08 10:30N 37°46' W 122°20'0 0.1
2017-Nov-08 10:00N 37°46' W 122°20'0 0.1
2017-Nov-08 09:30N 37°46' W 122°20'0 0.0
2017-Nov-08 09:00N 37°46' W 122°20'0 0.0
2017-Nov-08 08:30N 37°46' W 122°20'0 0.0
2017-Nov-08 08:00N 37°46' W 122°20'0 0.0
2017-Nov-08 07:30N 37°46' W 122°20'0 0.0
2017-Nov-08 07:00N 37°46' W 122°20'0 0.1
2017-Nov-08 06:30N 37°46' W 122°20'0 0.1
2017-Nov-08 06:00N 37°46' W 122°20'0 0.4
2017-Nov-08 05:30N 37°46' W 122°20'0 0.0
2017-Nov-08 05:00N 37°46' W 122°20'0 0.0
2017-Nov-08 04:31N 37°46' W 122°20'3 6.5
2017-Nov-08 04:01N 37°49' W 122°23'510.3
2017-Nov-08 03:30N 37°48' W 122°30'611.4
2017-Nov-08 03:00N 37°46' W 122°37'510.5
2017-Nov-08 02:31N 37°46' W 122°43'4 8.1
2017-Nov-08 02:00N 37°47' W 122°48'4 8.7
2017-Nov-08 01:30N 37°49' W 122°53'4 8.6
2017-Nov-08 01:00N 37°51' W 122°58'4 8.9
2017-Nov-08 00:30N 37°53' W 123°03'4 8.9
2017-Nov-08 00:00N 37°56' W 123°08'5 9.4
2017-Nov-07 23:30N 37°58' W 123°12'4 8.9
2017-Nov-07 23:00N 38°02' W 123°16'5 9.9
2017-Nov-07 22:30N 38°06' W 123°20'4 8.7
2017-Nov-07 22:00N 38°07' W 123°25'4 9.0
2017-Nov-07 21:30N 38°07' W 123°31'4 9.0
2017-Nov-07 21:00N 38°08' W 123°36'5 9.1
2017-Nov-07 20:30N 38°08' W 123°42'5 9.8
2017-Nov-07 20:00N 38°08' W 123°48'5 9.9
2017-Nov-07 19:30N 38°08' W 123°55'510.1
2017-Nov-07 19:00N 38°07' W 124°01'510.6
2017-Nov-07 18:30N 38°07' W 124°08'710.4
2017-Nov-07 17:52N 38°07' W 124°16'410.2
2017-Nov-07 17:30N 38°07' W 124°21'510.5
2017-Nov-07 17:00N 38°07' W 124°28'510.7
2017-Nov-07 16:30N 38°08' W 124°35'812.7
2017-Nov-07 15:53N 38°07' W 124°45'512.8
2017-Nov-07 15:29N 38°07' W 124°51'612.2
2017-Nov-07 15:00N 38°07' W 124°58'  

Dump ship's entire track history